createdAt,value
2022-12-08T04:44:22.921Z,7.37
2022-12-08T04:47:26.076Z,6.30
2022-12-08T04:50:28.692Z,7.62
2022-12-08T04:53:33.017Z,7.60
2022-12-08T04:56:35.652Z,7.80
2022-12-08T04:59:38.473Z,7.12
2022-12-08T05:02:41.255Z,8.75
2022-12-08T05:08:46.622Z,7.45
2022-12-08T05:11:49.510Z,9.07
2022-12-08T05:14:51.993Z,10.60
2022-12-08T05:17:54.927Z,7.80
2022-12-08T05:20:57.648Z,8.65
2022-12-08T05:24:00.384Z,8.38
2022-12-08T05:27:03.067Z,9.20
2022-12-08T05:30:08.457Z,11.55
2022-12-08T05:33:11.171Z,9.27
2022-12-08T05:36:15.269Z,8.98
2022-12-08T05:39:17.982Z,9.45
2022-12-08T05:42:24.755Z,8.65
2022-12-08T05:45:27.909Z,8.68
2022-12-08T05:48:31.043Z,8.85
2022-12-08T05:51:33.701Z,9.65
2022-12-08T05:54:36.700Z,7.85
2022-12-08T05:57:39.269Z,8.32
2022-12-08T06:00:42.955Z,9.98
2022-12-08T06:03:45.768Z,8.20
2022-12-08T06:06:48.243Z,9.27
2022-12-08T06:09:51.104Z,10.15
2022-12-08T06:12:53.796Z,10.30
2022-12-08T06:15:56.659Z,9.32
2022-12-08T06:18:59.243Z,10.18
2022-12-08T06:22:02.188Z,9.73
2022-12-08T06:25:08.552Z,9.68
2022-12-08T06:28:12.804Z,9.10
2022-12-08T06:31:23.963Z,9.57
2022-12-08T06:34:27.137Z,9.85
2022-12-08T06:37:29.710Z,9.70
2022-12-08T06:40:32.586Z,7.93
2022-12-08T06:43:35.303Z,8.40
2022-12-08T06:46:38.179Z,9.02
2022-12-08T06:49:40.743Z,6.80
2022-12-08T06:52:54.361Z,7.72
2022-12-08T06:56:04.230Z,8.00
2022-12-08T06:59:07.284Z,7.25
2022-12-08T07:02:11.407Z,9.35
2022-12-08T07:05:14.273Z,7.65
2022-12-08T07:08:17.110Z,9.00
2022-12-08T07:11:22.266Z,9.27
2022-12-08T07:14:25.305Z,8.57
2022-12-08T07:17:28.185Z,8.05
2022-12-08T07:20:30.773Z,6.87
2022-12-08T07:23:33.779Z,10.25
2022-12-08T07:26:36.256Z,8.55
2022-12-08T07:29:39.242Z,9.15
2022-12-08T07:32:41.934Z,9.57
2022-12-08T07:35:49.177Z,7.20
2022-12-08T07:38:56.758Z,7.85
2022-12-08T07:41:59.721Z,9.18
2022-12-08T07:45:02.467Z,7.95
2022-12-08T07:48:06.352Z,7.85
2022-12-08T07:51:10.685Z,8.15
2022-12-08T07:54:13.888Z,8.27
2022-12-08T07:57:16.373Z,8.55
2022-12-08T08:00:20.266Z,8.20
2022-12-08T08:03:23.166Z,7.65
2022-12-08T08:06:25.788Z,8.85
2022-12-08T08:09:28.681Z,7.75
2022-12-08T08:12:32.655Z,8.40
2022-12-08T08:15:36.389Z,10.50
2022-12-08T08:18:40.067Z,9.95
2022-12-08T08:21:45.829Z,10.82
2022-12-08T08:24:48.925Z,9.43
2022-12-08T08:27:51.867Z,11.05
2022-12-08T08:30:55.179Z,8.90
2022-12-08T08:33:58.023Z,9.55
2022-12-08T08:37:00.624Z,11.05
2022-12-08T08:40:04.286Z,10.20
2022-12-08T08:43:07.168Z,10.00
2022-12-08T08:46:10.382Z,10.55
2022-12-08T08:49:13.162Z,10.45
2022-12-08T08:52:16.003Z,10.20
2022-12-08T08:55:19.413Z,9.77
2022-12-08T08:58:22.299Z,9.75
2022-12-08T09:01:27.395Z,10.32
2022-12-08T09:04:30.313Z,9.02
2022-12-08T09:07:32.978Z,10.35
2022-12-08T09:10:35.851Z,10.57
2022-12-08T09:13:38.811Z,9.77
2022-12-08T09:19:45.268Z,9.82
2022-12-08T09:22:48.194Z,9.88
2022-12-08T09:25:50.713Z,10.43
2022-12-08T09:28:55.721Z,10.50
2022-12-08T09:31:58.277Z,9.65
2022-12-08T09:35:01.643Z,11.68
2022-12-08T09:38:04.254Z,11.82
2022-12-08T09:41:22.408Z,11.73
2022-12-08T09:44:47.646Z,10.82
2022-12-08T09:48:16.439Z,10.02
2022-12-08T09:51:20.123Z,10.25
2022-12-08T09:54:30.288Z,10.25
2022-12-08T09:57:33.174Z,9.65
2022-12-08T10:00:36.094Z,11.32
2022-12-08T10:03:40.365Z,11.50
2022-12-08T10:07:22.663Z,10.27
2022-12-08T10:10:35.920Z,9.82
2022-12-08T10:14:04.131Z,11.32
2022-12-08T10:17:23.818Z,11.12
2022-12-08T10:20:37.668Z,9.68
2022-12-08T10:23:43.610Z,10.40
2022-12-08T10:26:47.321Z,11.27
2022-12-08T10:29:50.114Z,9.15
2022-12-08T10:32:54.196Z,10.73
2022-12-08T10:35:59.257Z,9.85
2022-12-08T10:39:01.923Z,10.82
2022-12-08T10:42:17.134Z,10.63
2022-12-08T10:45:29.370Z,10.75
2022-12-08T10:48:33.727Z,11.60
2022-12-08T10:51:42.002Z,11.38
2022-12-08T10:54:44.811Z,11.23
2022-12-08T10:57:51.079Z,10.02
2022-12-08T11:00:57.686Z,8.80
2022-12-08T11:04:03.682Z,9.77
2022-12-08T11:07:11.640Z,10.18
2022-12-08T11:10:20.279Z,9.00
2022-12-08T11:13:26.555Z,11.07
2022-12-08T11:16:29.337Z,9.70
2022-12-08T11:22:45.957Z,10.20
2022-12-08T11:25:50.618Z,8.88
2022-12-08T11:28:53.295Z,9.32
2022-12-08T11:32:16.500Z,9.93
2022-12-08T11:35:26.331Z,8.55
2022-12-08T11:38:31.873Z,9.25
2022-12-08T11:41:39.676Z,9.85
2022-12-08T11:44:53.237Z,9.35
2022-12-08T11:48:11.360Z,7.18
2022-12-08T11:51:25.785Z,6.95
2022-12-08T11:54:34.424Z,7.97
2022-12-08T11:57:38.209Z,7.28
2022-12-08T12:00:40.821Z,6.82
2022-12-08T12:03:50.992Z,6.70
2022-12-08T12:07:24.640Z,5.82
2022-12-08T12:10:35.711Z,6.47
2022-12-08T12:14:07.829Z,5.87
2022-12-08T12:17:32.580Z,5.62
2022-12-08T12:20:48.999Z,6.35
2022-12-08T12:23:51.805Z,5.47
2022-12-08T12:27:07.179Z,6.22
2022-12-08T12:30:20.010Z,5.93
2022-12-08T12:33:23.859Z,5.60
2022-12-08T12:36:26.841Z,5.97
2022-12-08T12:39:31.847Z,5.43
2022-12-08T12:42:42.034Z,5.93
2022-12-08T12:45:45.794Z,5.10
2022-12-08T12:48:49.154Z,4.82
2022-12-08T12:51:55.645Z,5.50
2022-12-08T12:54:58.519Z,5.65
2022-12-08T12:58:18.752Z,4.68
2022-12-08T13:01:21.731Z,5.07
2022-12-08T13:04:35.028Z,4.30
2022-12-08T13:07:52.399Z,4.57
2022-12-08T13:11:04.422Z,4.47
2022-12-08T13:14:21.842Z,4.22
2022-12-08T13:17:28.629Z,4.20
2022-12-08T13:20:42.110Z,7.03
2022-12-08T13:23:48.745Z,9.05
2022-12-08T13:27:33.164Z,8.98
2022-12-08T13:30:43.851Z,8.10
2022-12-08T13:33:47.184Z,9.32
2022-12-08T13:37:10.974Z,9.40
2022-12-08T13:40:22.794Z,7.57
2022-12-08T13:43:55.558Z,7.47
2022-12-08T13:52:32.937Z,7.68
2022-12-08T13:57:44.972Z,5.00
2022-12-08T14:01:23.915Z,5.40
2022-12-08T14:04:54.369Z,5.47
2022-12-08T14:07:54.891Z,5.43
2022-12-08T14:11:02.354Z,5.68
2022-12-08T14:15:02.653Z,5.22
2022-12-08T14:17:57.590Z,4.80
2022-12-08T14:21:22.091Z,5.25
2022-12-08T14:24:27.286Z,5.32
2022-12-08T14:27:34.415Z,5.20
2022-12-08T14:30:39.579Z,6.70
2022-12-08T14:33:43.082Z,6.97
2022-12-08T14:36:46.190Z,6.45
2022-12-08T14:39:49.839Z,6.93
2022-12-08T14:43:14.317Z,6.97
2022-12-08T14:46:21.795Z,7.78
2022-12-08T14:49:36.521Z,8.07
2022-12-08T14:52:43.890Z,8.48
2022-12-08T14:55:48.450Z,7.35
2022-12-08T14:59:07.548Z,7.20
2022-12-08T15:02:19.310Z,6.70
2022-12-08T15:05:26.555Z,6.00
2022-12-08T15:08:31.057Z,6.47
2022-12-08T15:11:35.551Z,6.90
2022-12-08T15:14:54.710Z,7.87
2022-12-08T15:18:21.855Z,7.60
2022-12-08T15:21:30.442Z,7.68
2022-12-08T15:24:35.613Z,6.22
2022-12-08T15:27:49.545Z,7.32
2022-12-08T15:30:53.279Z,7.93
2022-12-08T15:33:56.147Z,7.80
2022-12-08T15:36:58.777Z,9.90
2022-12-08T15:40:01.646Z,10.25
2022-12-08T15:43:04.227Z,8.40
2022-12-08T15:46:07.124Z,7.57
2022-12-08T15:49:18.185Z,6.85
2022-12-08T15:52:23.940Z,7.10
2022-12-08T15:55:27.244Z,6.45
2022-12-08T15:58:53.613Z,6.47
2022-12-08T16:01:53.274Z,6.00
2022-12-08T16:12:09.950Z,6.47
2022-12-08T16:18:38.881Z,6.03
2022-12-08T16:25:21.362Z,6.53
2022-12-08T16:28:52.842Z,5.65
2022-12-08T16:31:48.300Z,7.22
